Airfield :
LOGIN :

Register | Disclaimer

   EN    FR    IT 

 










Legend :    VFR   Marginal VFR   IFR   Intensive IFR   Very Intensive IFR
Visi :
Ceiling :
>= 8 km
>= 3000ft
5 to 8 km
1000 to 3000 ft
1500m to 5 km
500 to 1000 ft
800 to 1500m
200 to 500 ft
< 800m
< 200 ft
Symbols :   Thunderstorms  Fog  Heavy snow  Heavy precipitations  Wind > 20 kt
SIGMETs :     Misc.  Thunderstorms  Icing  Turbulence  Mountain Waves  Volcanic Ashes






- Airport Elevation : 1090 ft
- IATA code : CFE


LFLC - Clermont-Ferrand Auvergne

CURRENT METAR :
  • 161300Z AUTO 18030G40KT CAVOK 16/07 Q1003 NOSIG

EXPIRED METARs :
  • 161230Z AUTO 18030G44KT CAVOK 15/07 Q1003 NOSIG
  • 161200Z AUTO 18029G43KT 9999 FEW001 15/08 Q1003 NOSIG
  • 161130Z AUTO 17024G36KT CAVOK 15/07 Q1004 NOSIG
  • 161100Z AUTO 17023KT CAVOK 15/07 Q1004 TEMPO 18025G45KT

TAF TAF LFLC
Valid from the 16 at 09:00 until the 17 at 09:00 UTC


160800Z 1609/1709 18020G35KT CAVOK
PROB40
TEMPO 1612/1618 18025G45KT
ATIS : +33 4 73 62 74 38



MET'MAP, your aeronautical weather chart ! - Copyright ORBIFLY December 2007 - Disclaimer

ORBIFLY MET'MAP TEAM :

Programming & Development : Alexandra Zaïnal
Concept & original design : Baudouin d'Aumeries
Assistance for programming : Marc-Olivier Méhu
Technical & hardware support : Manuel Goepfert

Contact : metmap@orbifly.com




SOURCES & CREDITS :

   NOAA